createdAt,value
2019-04-20T00:02:13.767Z,86.98
2019-04-20T00:04:35.688Z,85.12
2019-04-20T00:07:04.046Z,87.40
2019-04-20T00:09:36.535Z,89.27
2019-04-20T00:12:08.930Z,89.84
2019-04-20T00:14:33.860Z,89.81
2019-04-20T00:17:01.028Z,90.49
2019-04-20T00:19:37.251Z,90.74
2019-04-20T00:22:06.988Z,91.38
2019-04-20T00:24:38.955Z,90.44
2019-04-20T00:27:32.759Z,91.28
2019-04-20T00:29:54.783Z,91.86
2019-04-20T00:32:18.823Z,92.54
2019-04-20T00:34:39.020Z,93.97
2019-04-20T00:37:07.011Z,93.69
2019-04-20T00:39:36.016Z,93.19
2019-04-20T00:42:08.064Z,94.49
2019-04-20T00:44:37.700Z,94.41
2019-04-20T00:47:12.038Z,93.93
2019-04-20T00:49:45.904Z,91.75
2019-04-20T00:54:30.759Z,88.23
2019-04-20T00:57:12.118Z,87.83
2019-04-20T00:59:43.004Z,86.31
2019-04-20T01:02:12.675Z,86.88
2019-04-20T01:04:47.631Z,86.42
2019-04-20T01:07:20.568Z,85.35
2019-04-20T01:09:54.212Z,86.23
2019-04-20T01:12:26.321Z,84.56
2019-04-20T01:14:56.866Z,83.86
2019-04-20T01:17:20.689Z,83.79
2019-04-20T01:19:48.903Z,83.45
2019-04-20T01:22:21.811Z,85.13
2019-04-20T01:24:48.706Z,87.16
2019-04-20T01:27:27.186Z,88.72
2019-04-20T01:29:50.950Z,89.80
2019-04-20T01:32:23.319Z,90.78
2019-04-20T01:34:55.108Z,91.65
2019-04-20T01:37:26.054Z,92.01
2019-04-20T01:39:50.241Z,91.58
2019-04-20T01:42:13.100Z,91.63
2019-04-20T01:44:45.278Z,91.63
2019-04-20T01:47:11.612Z,90.75
2019-04-20T01:49:40.759Z,89.89
2019-04-20T01:52:16.425Z,90.42
2019-04-20T01:54:59.411Z,89.76
2019-04-20T01:57:38.601Z,89.83
2019-04-20T02:00:14.361Z,89.91
2019-04-20T02:02:47.555Z,90.79
2019-04-20T02:05:20.699Z,91.67
2019-04-20T02:07:47.562Z,91.50
2019-04-20T02:10:15.127Z,91.45
2019-04-20T02:12:44.017Z,90.23
2019-04-20T02:15:19.980Z,89.72
2019-04-20T02:17:51.785Z,90.21
2019-04-20T02:20:33.118Z,90.69
2019-04-20T02:22:55.329Z,90.77
2019-04-20T02:25:10.145Z,91.09
2019-04-20T02:27:45.611Z,91.12
2019-04-20T02:30:40.945Z,92.41
2019-04-20T02:33:34.408Z,92.60
2019-04-20T02:36:11.073Z,89.50
2019-04-20T02:39:11.726Z,87.16
2019-04-20T02:41:17.834Z,86.29
2019-04-20T02:44:04.126Z,83.60
2019-04-20T02:46:22.475Z,83.39
2019-04-20T02:48:56.821Z,84.09
2019-04-20T02:51:13.485Z,84.24
2019-04-20T02:53:51.196Z,85.16
2019-04-20T02:56:21.853Z,83.61
2019-04-20T02:58:50.234Z,83.26
2019-04-20T03:01:32.212Z,83.45
2019-04-20T03:03:48.131Z,83.38
2019-04-20T03:06:22.777Z,83.57
2019-04-20T03:09:04.913Z,83.45
2019-04-20T03:11:42.711Z,82.46
2019-04-20T03:14:00.647Z,81.86
2019-04-20T03:16:25.406Z,82.54
2019-04-20T03:18:54.643Z,83.45
2019-04-20T03:21:33.238Z,85.19
2019-04-20T03:24:06.504Z,86.86
2019-04-20T03:26:36.722Z,84.89
2019-04-20T03:29:24.128Z,85.05
2019-04-20T03:35:03.917Z,86.62
2019-04-20T03:37:13.184Z,87.51
2019-04-20T03:39:37.589Z,87.55
2019-04-20T03:41:52.030Z,87.50
2019-04-20T03:44:23.752Z,87.05
2019-04-20T03:46:53.046Z,87.47
2019-04-20T03:49:43.898Z,87.95
2019-04-20T03:52:24.540Z,87.69
2019-04-20T03:55:13.916Z,88.22
2019-04-20T03:57:57.494Z,88.58
2019-04-20T04:00:41.238Z,88.76
2019-04-20T04:03:31.922Z,89.01
2019-04-20T04:05:51.868Z,88.99
2019-04-20T04:08:17.010Z,88.93
2019-04-20T04:10:54.788Z,88.52
2019-04-20T04:13:16.904Z,88.69
2019-04-20T04:15:53.285Z,89.46
2019-04-20T04:18:25.392Z,88.07
2019-04-20T04:20:53.255Z,88.45
2019-04-20T04:23:33.692Z,88.45
2019-04-20T04:26:05.878Z,89.38
2019-04-20T04:28:32.596Z,89.90
2019-04-20T04:31:08.176Z,91.33
2019-04-20T04:36:03.134Z,89.97
2019-04-20T04:38:39.578Z,90.02
2019-04-20T04:41:08.564Z,88.16
2019-04-20T04:43:31.607Z,87.78
2019-04-20T04:45:42.721Z,86.78
2019-04-20T04:48:14.835Z,86.83
2019-04-20T04:50:49.625Z,86.28
2019-04-20T04:53:24.111Z,86.19
2019-04-20T04:55:47.696Z,85.58
2019-04-20T04:58:08.592Z,84.38
2019-04-20T05:00:37.542Z,84.31
2019-04-20T05:03:26.695Z,85.12
2019-04-20T05:06:11.713Z,85.35
2019-04-20T05:08:34.775Z,85.99
2019-04-20T05:10:58.295Z,86.50
2019-04-20T05:13:35.698Z,86.32
2019-04-20T05:16:08.986Z,85.88
2019-04-20T05:18:53.424Z,84.81
2019-04-20T05:21:25.342Z,83.47
2019-04-20T05:24:08.569Z,83.22
2019-04-20T05:26:55.620Z,83.36
2019-04-20T05:29:14.291Z,82.32
2019-04-20T05:31:43.436Z,80.29
2019-04-20T05:34:26.059Z,80.63
2019-04-20T05:37:04.647Z,81.03
2019-04-20T05:41:53.248Z,81.54
2019-04-20T05:44:39.091Z,80.74
2019-04-20T05:47:05.572Z,80.50
2019-04-20T05:49:33.089Z,81.31
2019-04-20T05:52:08.985Z,77.73
2019-04-20T05:54:36.403Z,72.54
2019-04-20T05:57:05.471Z,71.42
2019-04-20T05:59:27.086Z,73.05
2019-04-20T06:02:03.695Z,74.25
2019-04-20T06:04:44.439Z,73.42
2019-04-20T06:07:04.036Z,74.25
2019-04-20T06:09:29.558Z,70.25
2019-04-20T06:12:16.246Z,68.21
2019-04-20T06:14:43.065Z,70.79
2019-04-20T06:17:31.463Z,71.26
2019-04-20T06:20:06.163Z,69.21
2019-04-20T06:22:59.963Z,61.47
2019-04-20T06:25:21.950Z,60.56
2019-04-20T06:27:39.892Z,62.00
2019-04-20T06:30:05.974Z,64.13
2019-04-20T06:33:21.941Z,63.06
2019-04-20T06:36:00.920Z,62.71
2019-04-20T06:38:28.040Z,59.27
2019-04-20T06:40:54.159Z,58.78
2019-04-20T06:43:15.701Z,58.02
2019-04-20T06:45:53.435Z,57.87
2019-04-20T06:48:20.391Z,56.36
2019-04-20T06:50:38.480Z,54.60
2019-04-20T06:53:32.422Z,52.51
2019-04-20T06:56:06.765Z,53.66
2019-04-20T06:58:39.021Z,53.43
2019-04-20T07:00:58.869Z,52.75
2019-04-20T07:03:42.312Z,51.66
2019-04-20T07:06:16.873Z,51.26
2019-04-20T07:08:42.595Z,52.40
2019-04-20T07:10:58.158Z,52.62
2019-04-20T07:13:17.807Z,50.26
2019-04-20T07:15:54.488Z,51.29
2019-04-20T07:18:35.790Z,49.87
2019-04-20T07:21:25.177Z,49.58
2019-04-20T07:23:48.226Z,47.91
2019-04-20T07:26:19.361Z,48.99
2019-04-20T07:28:48.589Z,47.87
2019-04-20T07:31:14.146Z,45.79
2019-04-20T07:33:48.015Z,45.12
2019-04-20T07:36:20.067Z,46.13
2019-04-20T07:39:04.261Z,47.76
2019-04-20T07:41:12.945Z,47.38
2019-04-20T07:43:48.382Z,44.88
2019-04-20T07:46:23.154Z,46.48
2019-04-20T07:48:36.850Z,45.31
2019-04-20T07:50:58.272Z,45.03
2019-04-20T07:53:33.257Z,45.08
2019-04-20T07:56:17.785Z,45.52
2019-04-20T07:58:31.698Z,45.04
2019-04-20T08:01:38.709Z,44.48
2019-04-20T08:04:03.039Z,43.95
2019-04-20T08:06:33.040Z,45.50
2019-04-20T08:09:08.231Z,46.68
2019-04-20T08:11:44.807Z,46.90
2019-04-20T08:14:15.708Z,47.62
2019-04-20T08:16:51.758Z,47.77
2019-04-20T08:19:07.855Z,44.58
2019-04-20T08:21:42.266Z,45.67
2019-04-20T08:24:07.368Z,46.09
2019-04-20T08:26:26.284Z,45.46
2019-04-20T08:29:01.171Z,45.75
2019-04-20T08:32:10.383Z,44.44
2019-04-20T08:34:43.031Z,44.43
2019-04-20T08:37:06.092Z,45.67
2019-04-20T08:39:46.710Z,46.17
2019-04-20T08:42:06.309Z,46.59
2019-04-20T08:44:56.633Z,46.82
2019-04-20T08:47:10.000Z,46.66
2019-04-20T08:49:37.814Z,47.88
2019-04-20T08:52:24.289Z,47.51
2019-04-20T08:54:32.552Z,44.58
2019-04-20T08:56:48.861Z,44.52
2019-04-20T08:59:13.796Z,46.41
2019-04-20T09:01:42.656Z,42.46
2019-04-20T09:04:15.400Z,42.62
2019-04-20T09:06:52.428Z,43.14
2019-04-20T09:09:42.413Z,43.47
2019-04-20T09:12:12.059Z,44.38
2019-04-20T09:14:20.869Z,42.71
2019-04-20T09:16:59.208Z,42.52
2019-04-20T09:19:32.444Z,43.26
2019-04-20T09:22:14.742Z,43.45
2019-04-20T09:24:52.774Z,42.56
2019-04-20T09:27:12.970Z,42.61
2019-04-20T09:29:37.139Z,43.61
2019-04-20T09:32:23.203Z,43.56
2019-04-20T09:34:57.771Z,40.54
2019-04-20T09:37:43.528Z,40.19
2019-04-20T09:40:40.483Z,39.28
2019-04-20T09:43:18.585Z,40.69
2019-04-20T09:45:52.267Z,41.62
2019-04-20T09:48:25.371Z,40.52
2019-04-20T09:51:05.171Z,41.85
2019-04-20T09:53:31.419Z,40.73
2019-04-20T09:56:03.162Z,41.06
2019-04-20T09:58:26.236Z,41.70
2019-04-20T10:00:59.488Z,41.06
2019-04-20T10:03:14.099Z,40.18
2019-04-20T10:05:41.796Z,40.15
2019-04-20T10:08:09.978Z,40.31
2019-04-20T10:10:42.039Z,39.16
2019-04-20T10:13:09.160Z,40.13
2019-04-20T10:15:37.546Z,39.94
2019-04-20T10:18:05.792Z,40.46
2019-04-20T10:20:36.476Z,40.22
2019-04-20T10:23:02.741Z,39.63
2019-04-20T10:25:30.865Z,38.85
2019-04-20T10:27:58.501Z,39.53
2019-04-20T10:30:26.366Z,39.28
2019-04-20T10:32:55.640Z,39.48
2019-04-20T10:35:23.405Z,39.19
2019-04-20T10:37:55.663Z,39.61
2019-04-20T10:40:40.555Z,38.70
2019-04-20T10:42:53.156Z,39.96
2019-04-20T10:45:21.299Z,38.88
2019-04-20T10:47:49.021Z,38.85
2019-04-20T10:50:16.908Z,38.96
2019-04-20T10:52:45.785Z,37.90
2019-04-20T10:55:14.709Z,37.46
2019-04-20T10:57:43.699Z,39.13
2019-04-20T11:00:13.420Z,38.12
2019-04-20T11:02:44.189Z,38.80
2019-04-20T11:05:10.893Z,39.64
2019-04-20T11:07:38.803Z,38.72
2019-04-20T11:10:14.984Z,38.90
2019-04-20T11:12:38.098Z,38.36
2019-04-20T11:15:06.338Z,37.67
2019-04-20T11:17:35.276Z,38.75
2019-04-20T11:20:03.801Z,38.90
2019-04-20T11:22:32.558Z,38.53
2019-04-20T11:25:00.085Z,37.55
2019-04-20T11:27:28.004Z,36.18
2019-04-20T11:29:56.103Z,33.87
2019-04-20T11:32:24.226Z,34.06
2019-04-20T11:34:51.775Z,35.93
2019-04-20T11:37:19.423Z,35.08
2019-04-20T11:39:47.348Z,35.13
2019-04-20T11:42:15.010Z,35.39
2019-04-20T11:44:42.534Z,35.65
2019-04-20T11:47:12.498Z,35.46
2019-04-20T11:49:41.555Z,36.46
2019-04-20T11:52:09.751Z,36.72
2019-04-20T11:54:37.321Z,36.79
2019-04-20T11:57:05.418Z,37.23
2019-04-20T11:59:32.948Z,37.08
2019-04-20T12:02:25.053Z,36.38
2019-04-20T12:05:10.110Z,35.53
2019-04-20T12:07:22.611Z,35.45
2019-04-20T12:09:51.440Z,35.22
2019-04-20T12:12:31.251Z,35.43
2019-04-20T12:14:48.638Z,35.93
2019-04-20T12:17:17.569Z,36.56
2019-04-20T12:19:45.976Z,36.46
2019-04-20T12:22:13.872Z,37.72
2019-04-20T12:24:42.306Z,38.05
2019-04-20T12:27:10.149Z,37.85
2019-04-20T12:29:38.623Z,38.69
2019-04-20T12:32:08.570Z,38.33
2019-04-20T12:34:37.101Z,37.66
2019-04-20T12:37:05.069Z,35.65
2019-04-20T12:39:33.269Z,36.21
2019-04-20T12:42:04.744Z,36.77
2019-04-20T12:44:30.108Z,37.25
2019-04-20T12:46:57.606Z,37.86
2019-04-20T12:49:25.450Z,38.37
2019-04-20T12:51:57.997Z,39.41
2019-04-20T12:54:22.796Z,40.52
2019-04-20T12:56:50.769Z,41.54
2019-04-20T12:59:18.311Z,41.28
2019-04-20T13:01:47.124Z,41.63
2019-04-20T13:04:16.192Z,41.41
2019-04-20T13:06:44.784Z,41.75
2019-04-20T13:09:12.839Z,41.27
2019-04-20T13:11:57.427Z,41.27
2019-04-20T13:15:38.214Z,42.43
2019-04-20T13:18:07.438Z,41.23
2019-04-20T13:20:36.233Z,40.95
2019-04-20T13:23:05.616Z,41.45
2019-04-20T13:25:34.730Z,38.35
2019-04-20T13:28:03.373Z,37.57
2019-04-20T13:30:32.228Z,38.16
2019-04-20T13:32:59.936Z,36.51
2019-04-20T13:35:28.164Z,36.68
2019-04-20T13:37:56.244Z,37.68
2019-04-20T13:40:25.661Z,38.20
2019-04-20T13:42:53.996Z,38.54
2019-04-20T13:45:21.766Z,38.13
2019-04-20T13:47:50.765Z,38.72
2019-04-20T13:50:20.034Z,37.05
2019-04-20T13:52:48.669Z,37.30
2019-04-20T13:55:16.957Z,38.11
2019-04-20T13:57:53.836Z,38.67
2019-04-20T14:00:42.923Z,38.42
2019-04-20T14:03:11.072Z,37.89
2019-04-20T14:05:38.808Z,38.17
2019-04-20T14:08:09.514Z,37.25
2019-04-20T14:10:39.693Z,37.83
2019-04-20T14:13:12.050Z,38.16
2019-04-20T14:15:37.362Z,39.07
2019-04-20T14:18:06.936Z,39.01
2019-04-20T14:20:34.570Z,39.99
2019-04-20T14:23:03.142Z,40.04
2019-04-20T14:25:31.259Z,39.60
2019-04-20T14:27:58.798Z,39.84
2019-04-20T14:30:26.917Z,40.72
2019-04-20T14:32:54.738Z,40.64
2019-04-20T14:35:22.971Z,40.09
2019-04-20T14:37:51.995Z,40.51
2019-04-20T14:40:19.835Z,40.27
2019-04-20T14:42:51.348Z,39.68
2019-04-20T14:45:18.589Z,39.65
2019-04-20T14:47:46.193Z,40.21
2019-04-20T14:50:14.161Z,38.23
2019-04-20T14:52:41.851Z,38.21
2019-04-20T14:55:12.413Z,37.46
2019-04-20T14:57:39.482Z,37.11
2019-04-20T15:00:35.305Z,37.19
2019-04-20T15:03:23.910Z,36.62
2019-04-20T15:05:56.040Z,35.87
2019-04-20T15:08:24.880Z,35.21
2019-04-20T15:10:53.030Z,35.21
2019-04-20T15:13:20.763Z,35.65
2019-04-20T15:15:48.530Z,36.24
2019-04-20T15:18:17.612Z,35.55
2019-04-20T15:20:48.444Z,35.66
2019-04-20T15:23:21.354Z,35.79
2019-04-20T15:25:50.369Z,35.96
2019-04-20T15:28:18.624Z,36.23
2019-04-20T15:30:47.904Z,36.28
2019-04-20T15:33:16.878Z,36.18
2019-04-20T15:35:44.617Z,36.08
2019-04-20T15:38:13.275Z,35.27
2019-04-20T15:40:41.478Z,35.83
2019-04-20T15:43:14.477Z,36.23
2019-04-20T15:45:39.125Z,36.02
2019-04-20T15:48:07.934Z,36.03
2019-04-20T15:50:35.943Z,35.63
2019-04-20T15:53:04.125Z,35.12
2019-04-20T15:55:36.374Z,35.76
2019-04-20T15:58:04.543Z,36.42
2019-04-20T16:00:32.122Z,37.09
2019-04-20T16:03:11.659Z,36.61
2019-04-20T16:05:45.103Z,37.43
2019-04-20T16:08:32.668Z,38.13
2019-04-20T16:11:01.379Z,38.29
2019-04-20T16:13:35.805Z,37.06
2019-04-20T16:15:59.357Z,36.48
2019-04-20T16:18:27.323Z,36.49
2019-04-20T16:21:06.241Z,36.94
2019-04-20T16:23:32.477Z,36.72
2019-04-20T16:26:19.913Z,37.42
2019-04-20T16:28:47.971Z,37.53
2019-04-20T16:31:15.713Z,37.90
2019-04-20T16:33:44.291Z,38.19
2019-04-20T16:36:12.424Z,38.60
2019-04-20T16:38:41.741Z,39.23
2019-04-20T16:41:10.445Z,39.14
2019-04-20T16:43:42.530Z,39.76
2019-04-20T16:46:08.743Z,40.13
2019-04-20T16:48:37.925Z,40.64
2019-04-20T16:51:06.816Z,40.87
2019-04-20T16:53:35.057Z,40.92
2019-04-20T16:56:02.906Z,41.49
2019-04-20T16:58:31.972Z,41.87
2019-04-20T17:00:59.646Z,41.88
2019-04-20T17:03:38.928Z,42.05
2019-04-20T17:05:58.091Z,42.39
2019-04-20T17:08:26.904Z,42.33
2019-04-20T17:10:55.831Z,42.48
2019-04-20T17:13:35.235Z,42.70
2019-04-20T17:15:53.190Z,42.71
2019-04-20T17:18:23.577Z,43.51
2019-04-20T17:20:53.416Z,42.97
2019-04-20T17:23:23.396Z,43.42
2019-04-20T17:25:52.297Z,43.30
2019-04-20T17:28:38.599Z,43.31
2019-04-20T17:31:25.191Z,43.22
2019-04-20T17:34:04.671Z,44.18
2019-04-20T17:36:30.904Z,43.78
2019-04-20T17:39:01.480Z,44.47
2019-04-20T17:41:45.217Z,44.42
2019-04-20T17:44:17.327Z,44.77
2019-04-20T17:46:39.384Z,45.34
2019-04-20T17:49:09.548Z,45.82
2019-04-20T17:51:47.278Z,46.20
2019-04-20T17:54:22.162Z,46.96
2019-04-20T17:56:50.391Z,47.60
2019-04-20T17:59:17.844Z,47.79
2019-04-20T18:02:43.194Z,48.21
2019-04-20T18:07:51.892Z,47.63
2019-04-20T18:10:22.451Z,48.13
2019-04-20T18:12:40.915Z,47.93
2019-04-20T18:15:23.047Z,46.99
2019-04-20T18:18:07.209Z,47.20
2019-04-20T18:20:38.864Z,47.18
2019-04-20T18:23:06.690Z,47.59
2019-04-20T18:26:02.864Z,47.21
2019-04-20T18:28:16.190Z,47.46
2019-04-20T18:30:56.702Z,47.63
2019-04-20T18:33:26.011Z,48.02
2019-04-20T18:35:50.666Z,47.77
2019-04-20T18:38:20.062Z,48.66
2019-04-20T18:40:57.797Z,48.09
2019-04-20T18:43:22.296Z,48.04
2019-04-20T18:46:04.129Z,47.66
2019-04-20T18:48:37.923Z,47.28
2019-04-20T18:50:47.358Z,47.01
2019-04-20T18:53:23.834Z,47.98
2019-04-20T18:55:49.565Z,47.76
2019-04-20T18:58:15.161Z,46.86
2019-04-20T19:00:49.096Z,47.71
2019-04-20T19:03:20.462Z,47.25
2019-04-20T19:05:42.395Z,46.73
2019-04-20T19:08:13.612Z,48.36
2019-04-20T19:10:42.080Z,46.95
2019-04-20T19:13:23.428Z,48.52
2019-04-20T19:16:15.229Z,48.66
2019-04-20T19:19:01.745Z,48.68
2019-04-20T19:21:19.295Z,50.06
2019-04-20T19:23:56.174Z,49.63
2019-04-20T19:26:21.073Z,50.34
2019-04-20T19:28:52.499Z,50.43
2019-04-20T19:31:33.663Z,49.66
2019-04-20T19:34:06.244Z,49.79
2019-04-20T19:36:28.118Z,50.14
2019-04-20T19:39:01.715Z,50.98
2019-04-20T19:41:29.309Z,51.45
2019-04-20T19:43:55.022Z,51.65
2019-04-20T19:48:52.724Z,51.79
2019-04-20T19:51:34.083Z,52.22
2019-04-20T19:54:11.062Z,51.57
2019-04-20T19:56:33.677Z,52.52
2019-04-20T19:58:56.336Z,52.01
2019-04-20T20:01:11.574Z,52.97
2019-04-20T20:03:39.566Z,53.57
2019-04-20T20:06:11.067Z,54.77
2019-04-20T20:08:39.981Z,53.27
2019-04-20T20:11:09.667Z,52.86
2019-04-20T20:13:41.924Z,53.71
2019-04-20T20:16:12.370Z,54.12
2019-04-20T20:18:51.100Z,53.69
2019-04-20T20:21:20.060Z,53.77
2019-04-20T20:23:36.284Z,53.63
2019-04-20T20:26:07.188Z,53.00
2019-04-20T20:28:43.612Z,53.26
2019-04-20T20:31:12.830Z,54.33
2019-04-20T20:33:51.109Z,55.63
2019-04-20T20:36:11.186Z,55.09
2019-04-20T20:38:38.966Z,55.59
2019-04-20T20:41:12.346Z,55.32
2019-04-20T20:43:47.422Z,55.21
2019-04-20T20:46:15.496Z,53.95
2019-04-20T20:48:49.419Z,54.50
2019-04-20T20:51:13.615Z,55.40
2019-04-20T20:53:42.826Z,55.46
2019-04-20T20:56:06.317Z,56.24
2019-04-20T20:58:43.326Z,54.95
2019-04-20T21:01:09.203Z,54.57
2019-04-20T21:03:34.662Z,54.98
2019-04-20T21:05:57.945Z,54.57
2019-04-20T21:08:25.912Z,55.96
2019-04-20T21:10:54.732Z,55.07
2019-04-20T21:13:27.054Z,55.61
2019-04-20T21:16:00.049Z,54.51
2019-04-20T21:18:44.895Z,54.90
2019-04-20T21:21:10.282Z,55.29
2019-04-20T21:23:33.881Z,55.98
2019-04-20T21:26:12.669Z,58.86
2019-04-20T21:28:39.804Z,58.00
2019-04-20T21:31:16.324Z,57.54
2019-04-20T21:33:40.088Z,59.23
2019-04-20T21:36:07.368Z,57.85
2019-04-20T21:38:39.495Z,58.31
2019-04-20T21:41:09.337Z,58.20
2019-04-20T21:43:38.825Z,58.92
2019-04-20T21:46:07.252Z,58.34
2019-04-20T21:48:47.706Z,59.48
2019-04-20T21:51:21.211Z,57.44
2019-04-20T21:53:34.179Z,57.28
2019-04-20T21:56:01.795Z,58.06
2019-04-20T21:58:35.457Z,57.18
2019-04-20T22:01:10.781Z,59.13
2019-04-20T22:03:32.152Z,60.40
2019-04-20T22:06:04.735Z,57.83
2019-04-20T22:08:34.645Z,58.56
2019-04-20T22:11:03.862Z,59.99
2019-04-20T22:13:37.663Z,60.20
2019-04-20T22:16:06.847Z,59.95
2019-04-20T22:18:45.473Z,59.23
2019-04-20T22:21:09.399Z,58.28
2019-04-20T22:23:47.616Z,59.30
2019-04-20T22:26:11.911Z,60.27
2019-04-20T22:28:29.820Z,60.64
2019-04-20T22:30:58.033Z,60.59
2019-04-20T22:33:34.674Z,59.40
2019-04-20T22:36:02.514Z,59.99
2019-04-20T22:38:37.656Z,59.04
2019-04-20T22:41:11.994Z,57.53
2019-04-20T22:43:38.887Z,56.93
2019-04-20T22:46:05.552Z,57.86
2019-04-20T22:48:40.514Z,58.32
2019-04-20T22:51:19.644Z,58.63
2019-04-20T22:53:44.000Z,59.62
2019-04-20T22:56:19.972Z,62.49
2019-04-20T22:58:43.508Z,61.55
2019-04-20T23:01:05.880Z,60.97
2019-04-20T23:03:30.688Z,59.36
2019-04-20T23:05:58.658Z,59.40
2019-04-20T23:08:26.612Z,62.50
2019-04-20T23:10:55.544Z,58.23
2019-04-20T23:13:29.461Z,58.85
2019-04-20T23:15:56.561Z,60.55
2019-04-20T23:18:22.419Z,62.16
2019-04-20T23:20:50.102Z,61.47
2019-04-20T23:23:21.102Z,61.35
2019-04-20T23:25:47.232Z,62.46
2019-04-20T23:28:18.073Z,61.51
2019-04-20T23:30:45.782Z,62.84
2019-04-20T23:33:15.987Z,62.41
2019-04-20T23:35:48.972Z,62.43
2019-04-20T23:38:18.029Z,60.75
2019-04-20T23:40:43.696Z,61.91
2019-04-20T23:43:23.394Z,61.00
2019-04-20T23:45:53.081Z,62.02
2019-04-20T23:48:36.021Z,63.38
2019-04-20T23:51:24.985Z,62.24
2019-04-20T23:53:43.876Z,62.43
2019-04-20T23:55:59.646Z,61.35
2019-04-20T23:58:30.974Z,60.77
